You are not logged in, Click here to log in
ICAO: UHPP Country: 俄羅斯聯邦堪察加邊疆區堪察加彼得巴甫洛夫斯克
Latitude: 53.1679 Longitude: 158.454
Total Arrivals: 4 Total Departures: 4
Latest Arrival: HZ153G (PANC-UHPP)Jason. Li Latest Departure: 6RU631 (UHPP-UHMM)Jason. Li
Scenery:
METAR : UHPP 151600Z VRB01MPS 9999 FEW002 BKN044 05/05 Q1016 R34L/110070 NOSIG RMK QFE758/1011

堪察加彼得巴甫洛夫斯克機場PKC